sensor_id;sensor_type;location;lat;lon;timestamp;temperature;humidity
14771;DHT22;7477;45.222;5.688;2022-09-13T00:01:14;19.30;99.90
14771;DHT22;7477;45.222;5.688;2022-09-13T00:04:33;19.30;99.90
14771;DHT22;7477;45.222;5.688;2022-09-13T00:07:53;19.30;99.90
14771;DHT22;7477;45.222;5.688;2022-09-13T00:11:25;19.30;99.90
14771;DHT22;7477;45.222;5.688;2022-09-13T00:14:44;19.30;99.90
14771;DHT22;7477;45.222;5.688;2022-09-13T00:18:03;19.20;99.90
14771;DHT22;7477;45.222;5.688;2022-09-13T00:21:23;19.30;99.90
14771;DHT22;7477;45.222;5.688;2022-09-13T00:24:42;19.20;99.90
14771;DHT22;7477;45.222;5.688;2022-09-13T00:28:03;19.20;99.90
14771;DHT22;7477;45.222;5.688;2022-09-13T00:31:23;19.00;99.90
14771;DHT22;7477;45.222;5.688;2022-09-13T00:34:44;19.00;99.90
14771;DHT22;7477;45.222;5.688;2022-09-13T00:38:03;19.00;99.90
14771;DHT22;7477;45.222;5.688;2022-09-13T00:41:23;19.00;99.90
14771;DHT22;7477;45.222;5.688;2022-09-13T00:48:21;18.90;99.90
14771;DHT22;7477;45.222;5.688;2022-09-13T00:51:48;18.80;99.90
14771;DHT22;7477;45.222;5.688;2022-09-13T00:55:21;18.80;99.90
14771;DHT22;7477;45.222;5.688;2022-09-13T00:58:51;18.70;99.90
14771;DHT22;7477;45.222;5.688;2022-09-13T01:02:13;18.70;99.90
14771;DHT22;7477;45.222;5.688;2022-09-13T01:05:37;18.70;99.90
14771;DHT22;7477;45.222;5.688;2022-09-13T01:08:58;18.60;99.90
14771;DHT22;7477;45.222;5.688;2022-09-13T01:15:54;18.50;99.90
14771;DHT22;7477;45.222;5.688;2022-09-13T01:19:13;18.50;99.90
14771;DHT22;7477;45.222;5.688;2022-09-13T01:33:49;18.50;99.90
14771;DHT22;7477;45.222;5.688;2022-09-13T01:48:06;18.40;99.90
14771;DHT22;7477;45.222;5.688;2022-09-13T01:54:56;18.40;99.90
14771;DHT22;7477;45.222;5.688;2022-09-13T01:58:38;18.40;99.90
14771;DHT22;7477;45.222;5.688;2022-09-13T02:02:10;18.40;99.90
14771;DHT22;7477;45.222;5.688;2022-09-13T02:05:43;18.40;99.90
14771;DHT22;7477;45.222;5.688;2022-09-13T02:09:10;18.40;99.90
14771;DHT22;7477;45.222;5.688;2022-09-13T02:12:31;18.40;99.90
14771;DHT22;7477;45.222;5.688;2022-09-13T02:15:56;18.30;99.90
14771;DHT22;7477;45.222;5.688;2022-09-13T02:19:20;18.30;99.90
14771;DHT22;7477;45.222;5.688;2022-09-13T02:22:43;18.30;99.90
14771;DHT22;7477;45.222;5.688;2022-09-13T02:26:06;18.30;99.90
14771;DHT22;7477;45.222;5.688;2022-09-13T02:29:26;18.30;99.90
14771;DHT22;7477;45.222;5.688;2022-09-13T02:33:22;18.20;99.90
14771;DHT22;7477;45.222;5.688;2022-09-13T02:36:41;18.20;99.90
14771;DHT22;7477;45.222;5.688;2022-09-13T02:40:06;18.30;99.90
14771;DHT22;7477;45.222;5.688;2022-09-13T02:43:54;18.30;99.90
14771;DHT22;7477;45.222;5.688;2022-09-13T02:47:30;18.20;99.90
14771;DHT22;7477;45.222;5.688;2022-09-13T02:51:01;18.20;99.90
14771;DHT22;7477;45.222;5.688;2022-09-13T02:58:14;18.30;99.90
14771;DHT22;7477;45.222;5.688;2022-09-13T03:01:38;18.30;99.90
14771;DHT22;7477;45.222;5.688;2022-09-13T03:05:02;18.20;99.90
14771;DHT22;7477;45.222;5.688;2022-09-13T03:08:22;18.20;99.90
14771;DHT22;7477;45.222;5.688;2022-09-13T03:12:09;18.30;99.90
14771;DHT22;7477;45.222;5.688;2022-09-13T03:16:04;18.30;99.90
14771;DHT22;7477;45.222;5.688;2022-09-13T03:26:59;18.20;99.90
14771;DHT22;7477;45.222;5.688;2022-09-13T03:30:20;18.40;99.90
14771;DHT22;7477;45.222;5.688;2022-09-13T03:37:38;18.40;99.90
14771;DHT22;7477;45.222;5.688;2022-09-13T03:41:09;18.40;99.90
14771;DHT22;7477;45.222;5.688;2022-09-13T03:44:30;18.30;99.90
14771;DHT22;7477;45.222;5.688;2022-09-13T03:47:52;18.30;99.90
14771;DHT22;7477;45.222;5.688;2022-09-13T03:51:12;18.30;99.90
14771;DHT22;7477;45.222;5.688;2022-09-13T03:54:35;18.30;99.90
14771;DHT22;7477;45.222;5.688;2022-09-13T03:57:55;18.30;99.90
14771;DHT22;7477;45.222;5.688;2022-09-13T04:01:22;18.20;99.90
14771;DHT22;7477;45.222;5.688;2022-09-13T04:04:43;18.30;99.90
14771;DHT22;7477;45.222;5.688;2022-09-13T04:08:04;18.30;99.90
14771;DHT22;7477;45.222;5.688;2022-09-13T04:11:24;18.30;99.90
14771;DHT22;7477;45.222;5.688;2022-09-13T04:14:43;18.30;99.90
14771;DHT22;7477;45.222;5.688;2022-09-13T04:18:03;18.20;99.90
14771;DHT22;7477;45.222;5.688;2022-09-13T04:21:22;18.20;99.90
14771;DHT22;7477;45.222;5.688;2022-09-13T04:24:42;18.20;99.90
14771;DHT22;7477;45.222;5.688;2022-09-13T04:28:01;18.20;99.90
14771;DHT22;7477;45.222;5.688;2022-09-13T04:31:20;18.10;99.90
14771;DHT22;7477;45.222;5.688;2022-09-13T04:34:39;18.10;99.90
14771;DHT22;7477;45.222;5.688;2022-09-13T04:37:59;18.10;99.90
14771;DHT22;7477;45.222;5.688;2022-09-13T04:41:18;18.10;99.90
14771;DHT22;7477;45.222;5.688;2022-09-13T04:44:37;18.10;99.90
14771;DHT22;7477;45.222;5.688;2022-09-13T04:47:56;18.10;99.90
14771;DHT22;7477;45.222;5.688;2022-09-13T04:51:16;18.10;99.90
14771;DHT22;7477;45.222;5.688;2022-09-13T04:54:36;18.20;99.90
14771;DHT22;7477;45.222;5.688;2022-09-13T04:57:55;18.10;99.90
14771;DHT22;7477;45.222;5.688;2022-09-13T05:01:15;18.10;99.90
14771;DHT22;7477;45.222;5.688;2022-09-13T05:04:35;18.10;99.90
14771;DHT22;7477;45.222;5.688;2022-09-13T05:07:54;18.10;99.90
14771;DHT22;7477;45.222;5.688;2022-09-13T05:11:13;18.10;99.90
14771;DHT22;7477;45.222;5.688;2022-09-13T05:14:32;18.00;99.90
14771;DHT22;7477;45.222;5.688;2022-09-13T05:17:53;18.00;99.90
14771;DHT22;7477;45.222;5.688;2022-09-13T05:21:12;17.90;99.90
14771;DHT22;7477;45.222;5.688;2022-09-13T05:24:32;18.00;99.90
14771;DHT22;7477;45.222;5.688;2022-09-13T05:27:51;18.00;99.90
14771;DHT22;7477;45.222;5.688;2022-09-13T05:31:24;18.00;99.90
14771;DHT22;7477;45.222;5.688;2022-09-13T05:34:44;18.00;99.90
14771;DHT22;7477;45.222;5.688;2022-09-13T05:38:03;18.00;99.90
14771;DHT22;7477;45.222;5.688;2022-09-13T05:41:23;18.00;99.90
14771;DHT22;7477;45.222;5.688;2022-09-13T05:44:42;18.10;99.90
14771;DHT22;7477;45.222;5.688;2022-09-13T05:48:02;18.10;99.90
14771;DHT22;7477;45.222;5.688;2022-09-13T05:51:21;18.10;99.90
14771;DHT22;7477;45.222;5.688;2022-09-13T05:54:41;18.10;99.90
14771;DHT22;7477;45.222;5.688;2022-09-13T05:58:01;18.10;99.90
14771;DHT22;7477;45.222;5.688;2022-09-13T06:01:26;18.10;99.90
14771;DHT22;7477;45.222;5.688;2022-09-13T06:04:45;18.10;99.90
14771;DHT22;7477;45.222;5.688;2022-09-13T06:08:05;18.10;99.90
14771;DHT22;7477;45.222;5.688;2022-09-13T06:11:25;18.10;99.90
14771;DHT22;7477;45.222;5.688;2022-09-13T06:14:44;18.20;99.90
14771;DHT22;7477;45.222;5.688;2022-09-13T06:18:03;18.10;99.90
14771;DHT22;7477;45.222;5.688;2022-09-13T06:21:23;18.20;99.90
14771;DHT22;7477;45.222;5.688;2022-09-13T06:24:42;18.20;99.90
14771;DHT22;7477;45.222;5.688;2022-09-13T06:28:01;18.20;99.90
14771;DHT22;7477;45.222;5.688;2022-09-13T06:31:23;18.30;99.90
14771;DHT22;7477;45.222;5.688;2022-09-13T06:34:43;18.40;99.90
14771;DHT22;7477;45.222;5.688;2022-09-13T06:38:02;18.40;99.90
14771;DHT22;7477;45.222;5.688;2022-09-13T06:41:22;18.40;99.90
14771;DHT22;7477;45.222;5.688;2022-09-13T06:44:41;18.40;99.90
14771;DHT22;7477;45.222;5.688;2022-09-13T06:48:01;18.40;99.90
14771;DHT22;7477;45.222;5.688;2022-09-13T06:51:23;18.40;99.90
14771;DHT22;7477;45.222;5.688;2022-09-13T06:54:42;18.40;99.90
14771;DHT22;7477;45.222;5.688;2022-09-13T06:58:02;18.50;99.90
14771;DHT22;7477;45.222;5.688;2022-09-13T07:01:24;18.50;99.90
14771;DHT22;7477;45.222;5.688;2022-09-13T07:04:43;18.50;99.90
14771;DHT22;7477;45.222;5.688;2022-09-13T07:08:02;18.50;99.90
14771;DHT22;7477;45.222;5.688;2022-09-13T07:11:23;18.50;99.90
14771;DHT22;7477;45.222;5.688;2022-09-13T07:14:43;18.50;99.90
14771;DHT22;7477;45.222;5.688;2022-09-13T07:18:02;18.50;99.90
14771;DHT22;7477;45.222;5.688;2022-09-13T07:21:21;18.60;99.90
14771;DHT22;7477;45.222;5.688;2022-09-13T07:24:41;18.60;99.90
14771;DHT22;7477;45.222;5.688;2022-09-13T07:28:00;18.70;99.90
14771;DHT22;7477;45.222;5.688;2022-09-13T07:31:22;18.70;99.90
14771;DHT22;7477;45.222;5.688;2022-09-13T07:34:41;18.80;99.90
14771;DHT22;7477;45.222;5.688;2022-09-13T07:38:00;18.80;99.90
14771;DHT22;7477;45.222;5.688;2022-09-13T07:41:21;18.80;99.90
14771;DHT22;7477;45.222;5.688;2022-09-13T07:44:41;18.90;99.90
14771;DHT22;7477;45.222;5.688;2022-09-13T07:48:00;18.90;99.90
14771;DHT22;7477;45.222;5.688;2022-09-13T07:51:22;19.00;99.90
14771;DHT22;7477;45.222;5.688;2022-09-13T07:54:42;19.10;99.90
14771;DHT22;7477;45.222;5.688;2022-09-13T07:58:01;19.20;99.90
14771;DHT22;7477;45.222;5.688;2022-09-13T08:01:38;19.20;99.90
14771;DHT22;7477;45.222;5.688;2022-09-13T08:04:58;19.30;99.90
14771;DHT22;7477;45.222;5.688;2022-09-13T08:08:17;19.30;99.90
14771;DHT22;7477;45.222;5.688;2022-09-13T08:11:38;19.40;99.90
14771;DHT22;7477;45.222;5.688;2022-09-13T08:14:58;19.40;99.90
14771;DHT22;7477;45.222;5.688;2022-09-13T08:18:18;19.50;99.90
14771;DHT22;7477;45.222;5.688;2022-09-13T08:21:39;19.50;99.90
14771;DHT22;7477;45.222;5.688;2022-09-13T08:24:58;19.60;99.90
14771;DHT22;7477;45.222;5.688;2022-09-13T08:28:19;19.60;99.90
14771;DHT22;7477;45.222;5.688;2022-09-13T08:31:39;19.70;99.90
14771;DHT22;7477;45.222;5.688;2022-09-13T08:34:59;19.70;99.90
14771;DHT22;7477;45.222;5.688;2022-09-13T08:38:18;19.80;99.90
14771;DHT22;7477;45.222;5.688;2022-09-13T08:45:00;19.90;99.90
14771;DHT22;7477;45.222;5.688;2022-09-13T08:48:22;19.90;99.90
14771;DHT22;7477;45.222;5.688;2022-09-13T08:51:47;20.00;99.90
14771;DHT22;7477;45.222;5.688;2022-09-13T09:02:45;20.70;99.90
14771;DHT22;7477;45.222;5.688;2022-09-13T09:06:12;20.40;99.90
14771;DHT22;7477;45.222;5.688;2022-09-13T09:09:38;20.10;99.90
14771;DHT22;7477;45.222;5.688;2022-09-13T09:13:06;20.10;99.90
14771;DHT22;7477;45.222;5.688;2022-09-13T09:16:36;20.30;99.90
14771;DHT22;7477;45.222;5.688;2022-09-13T09:20:23;20.20;99.90
14771;DHT22;7477;45.222;5.688;2022-09-13T09:23:50;20.10;99.90
14771;DHT22;7477;45.222;5.688;2022-09-13T09:27:14;20.10;99.90
14771;DHT22;7477;45.222;5.688;2022-09-13T09:30:43;20.20;99.90
14771;DHT22;7477;45.222;5.688;2022-09-13T09:37:41;20.40;99.90
14771;DHT22;7477;45.222;5.688;2022-09-13T09:41:10;20.50;99.90
14771;DHT22;7477;45.222;5.688;2022-09-13T09:44:31;20.50;99.90
14771;DHT22;7477;45.222;5.688;2022-09-13T09:47:52;20.50;99.90
14771;DHT22;7477;45.222;5.688;2022-09-13T09:51:14;20.70;99.90
14771;DHT22;7477;45.222;5.688;2022-09-13T09:54:35;20.80;99.90
14771;DHT22;7477;45.222;5.688;2022-09-13T10:04:54;20.90;99.90
14771;DHT22;7477;45.222;5.688;2022-09-13T10:08:41;20.70;99.90
14771;DHT22;7477;45.222;5.688;2022-09-13T10:12:01;21.00;99.90
14771;DHT22;7477;45.222;5.688;2022-09-13T10:15:27;20.90;99.90
14771;DHT22;7477;45.222;5.688;2022-09-13T10:18:52;21.10;99.90
14771;DHT22;7477;45.222;5.688;2022-09-13T10:22:12;21.30;99.90
14771;DHT22;7477;45.222;5.688;2022-09-13T10:25:31;21.20;99.90
14771;DHT22;7477;45.222;5.688;2022-09-13T10:32:10;21.20;99.90
14771;DHT22;7477;45.222;5.688;2022-09-13T10:35:31;21.10;99.90
14771;DHT22;7477;45.222;5.688;2022-09-13T10:38:58;21.30;99.90
14771;DHT22;7477;45.222;5.688;2022-09-13T10:42:21;21.40;99.90
14771;DHT22;7477;45.222;5.688;2022-09-13T10:45:41;21.30;99.90
14771;DHT22;7477;45.222;5.688;2022-09-13T10:49:01;21.40;99.90
14771;DHT22;7477;45.222;5.688;2022-09-13T10:52:43;21.30;99.90
14771;DHT22;7477;45.222;5.688;2022-09-13T10:56:02;21.50;99.90
14771;DHT22;7477;45.222;5.688;2022-09-13T10:59:26;21.40;99.90
14771;DHT22;7477;45.222;5.688;2022-09-13T11:20:15;21.20;99.90
14771;DHT22;7477;45.222;5.688;2022-09-13T11:24:07;21.30;99.90
14771;DHT22;7477;45.222;5.688;2022-09-13T11:31:14;21.60;99.90
14771;DHT22;7477;45.222;5.688;2022-09-13T11:45:27;21.50;99.90
14771;DHT22;7477;45.222;5.688;2022-09-13T11:49:15;21.60;99.90
14771;DHT22;7477;45.222;5.688;2022-09-13T11:56:20;21.70;99.90
14771;DHT22;7477;45.222;5.688;2022-09-13T12:03:48;21.60;99.90
14771;DHT22;7477;45.222;5.688;2022-09-13T12:07:18;21.70;99.90
14771;DHT22;7477;45.222;5.688;2022-09-13T12:11:05;22.00;99.90
14771;DHT22;7477;45.222;5.688;2022-09-13T12:14:33;22.10;99.90
14771;DHT22;7477;45.222;5.688;2022-09-13T12:18:22;22.20;99.90
14771;DHT22;7477;45.222;5.688;2022-09-13T12:21:40;22.30;99.90
14771;DHT22;7477;45.222;5.688;2022-09-13T12:25:04;22.10;99.90
14771;DHT22;7477;45.222;5.688;2022-09-13T12:28:28;22.00;99.90
14771;DHT22;7477;45.222;5.688;2022-09-13T12:31:49;22.60;99.90
14771;DHT22;7477;45.222;5.688;2022-09-13T13:00:46;23.80;99.90
14771;DHT22;7477;45.222;5.688;2022-09-13T13:04:16;22.90;99.90
14771;DHT22;7477;45.222;5.688;2022-09-13T13:07:38;22.60;99.90
14771;DHT22;7477;45.222;5.688;2022-09-13T13:11:10;22.50;99.90
14771;DHT22;7477;45.222;5.688;2022-09-13T13:21:41;22.40;99.90
14771;DHT22;7477;45.222;5.688;2022-09-13T13:25:34;22.60;99.90
14771;DHT22;7477;45.222;5.688;2022-09-13T13:29:04;22.80;99.90
14771;DHT22;7477;45.222;5.688;2022-09-13T13:32:23;22.70;99.90
14771;DHT22;7477;45.222;5.688;2022-09-13T13:35:43;22.80;99.90
14771;DHT22;7477;45.222;5.688;2022-09-13T13:39:03;23.60;99.90
14771;DHT22;7477;45.222;5.688;2022-09-13T13:42:25;23.10;99.90
14771;DHT22;7477;45.222;5.688;2022-09-13T13:52:57;22.60;99.90
14771;DHT22;7477;45.222;5.688;2022-09-13T13:56:44;22.70;99.90
14771;DHT22;7477;45.222;5.688;2022-09-13T14:15:13;25.10;99.90
14771;DHT22;7477;45.222;5.688;2022-09-13T14:19:01;25.70;99.90
14771;DHT22;7477;45.222;5.688;2022-09-13T14:22:26;25.30;99.90
14771;DHT22;7477;45.222;5.688;2022-09-13T14:25:53;25.00;99.90
14771;DHT22;7477;45.222;5.688;2022-09-13T14:29:18;23.80;99.90
14771;DHT22;7477;45.222;5.688;2022-09-13T14:32:51;23.50;99.90
14771;DHT22;7477;45.222;5.688;2022-09-13T14:36:20;23.20;99.90
14771;DHT22;7477;45.222;5.688;2022-09-13T14:39:59;23.20;99.90
14771;DHT22;7477;45.222;5.688;2022-09-13T14:43:21;23.20;99.90
14771;DHT22;7477;45.222;5.688;2022-09-13T14:46:43;23.10;99.90
14771;DHT22;7477;45.222;5.688;2022-09-13T14:50:11;24.40;99.90
14771;DHT22;7477;45.222;5.688;2022-09-13T14:53:33;25.20;99.90
14771;DHT22;7477;45.222;5.688;2022-09-13T14:56:56;25.10;99.90
14771;DHT22;7477;45.222;5.688;2022-09-13T15:00:21;25.00;99.90
14771;DHT22;7477;45.222;5.688;2022-09-13T15:03:43;23.80;99.90
14771;DHT22;7477;45.222;5.688;2022-09-13T15:07:28;23.40;99.90
14771;DHT22;7477;45.222;5.688;2022-09-13T15:10:47;23.30;99.90
14771;DHT22;7477;45.222;5.688;2022-09-13T15:14:30;23.30;99.90
14771;DHT22;7477;45.222;5.688;2022-09-13T15:18:00;23.30;99.90
14771;DHT22;7477;45.222;5.688;2022-09-13T15:21:19;23.20;99.90
14771;DHT22;7477;45.222;5.688;2022-09-13T15:24:50;23.30;99.90
14771;DHT22;7477;45.222;5.688;2022-09-13T15:28:31;23.30;99.90
14771;DHT22;7477;45.222;5.688;2022-09-13T15:31:57;23.30;99.90
14771;DHT22;7477;45.222;5.688;2022-09-13T15:35:30;23.30;99.90
14771;DHT22;7477;45.222;5.688;2022-09-13T15:42:21;23.30;99.90
14771;DHT22;7477;45.222;5.688;2022-09-13T15:45:40;23.30;99.90
14771;DHT22;7477;45.222;5.688;2022-09-13T15:49:02;23.30;99.90
14771;DHT22;7477;45.222;5.688;2022-09-13T15:52:22;23.30;99.90
14771;DHT22;7477;45.222;5.688;2022-09-13T15:55:41;23.30;99.90
14771;DHT22;7477;45.222;5.688;2022-09-13T15:59:01;23.50;99.90
14771;DHT22;7477;45.222;5.688;2022-09-13T16:02:26;23.50;99.90
14771;DHT22;7477;45.222;5.688;2022-09-13T16:05:46;23.40;99.90
14771;DHT22;7477;45.222;5.688;2022-09-13T16:09:18;23.40;99.90
14771;DHT22;7477;45.222;5.688;2022-09-13T16:12:37;23.40;99.90
14771;DHT22;7477;45.222;5.688;2022-09-13T16:15:57;23.30;99.90
14771;DHT22;7477;45.222;5.688;2022-09-13T16:19:19;23.40;99.90
14771;DHT22;7477;45.222;5.688;2022-09-13T16:22:39;23.40;99.90
14771;DHT22;7477;45.222;5.688;2022-09-13T16:25:59;23.40;99.90
14771;DHT22;7477;45.222;5.688;2022-09-13T16:29:18;23.40;99.90
14771;DHT22;7477;45.222;5.688;2022-09-13T16:32:38;23.70;99.90
14771;DHT22;7477;45.222;5.688;2022-09-13T16:35:57;23.50;99.90
14771;DHT22;7477;45.222;5.688;2022-09-13T16:39:18;24.00;99.90
14771;DHT22;7477;45.222;5.688;2022-09-13T16:42:38;24.20;99.90
14771;DHT22;7477;45.222;5.688;2022-09-13T16:45:58;24.30;99.90
14771;DHT22;7477;45.222;5.688;2022-09-13T16:49:17;24.10;99.90
14771;DHT22;7477;45.222;5.688;2022-09-13T16:52:36;24.10;99.90
14771;DHT22;7477;45.222;5.688;2022-09-13T16:56:07;23.90;99.90
14771;DHT22;7477;45.222;5.688;2022-09-13T16:59:27;23.60;99.90
14771;DHT22;7477;45.222;5.688;2022-09-13T17:02:46;23.80;99.90
14771;DHT22;7477;45.222;5.688;2022-09-13T17:06:08;23.70;99.90
14771;DHT22;7477;45.222;5.688;2022-09-13T17:09:27;23.60;99.90
14771;DHT22;7477;45.222;5.688;2022-09-13T17:12:48;23.60;99.90
14771;DHT22;7477;45.222;5.688;2022-09-13T17:16:20;23.70;99.90
14771;DHT22;7477;45.222;5.688;2022-09-13T17:19:40;23.90;99.90
14771;DHT22;7477;45.222;5.688;2022-09-13T17:22:59;24.40;99.90
14771;DHT22;7477;45.222;5.688;2022-09-13T17:26:19;24.60;99.90
14771;DHT22;7477;45.222;5.688;2022-09-13T17:29:39;24.30;99.90
14771;DHT22;7477;45.222;5.688;2022-09-13T17:32:58;24.50;99.90
14771;DHT22;7477;45.222;5.688;2022-09-13T17:36:19;24.60;99.90
14771;DHT22;7477;45.222;5.688;2022-09-13T17:39:38;24.60;99.90
14771;DHT22;7477;45.222;5.688;2022-09-13T17:42:58;24.60;99.90
14771;DHT22;7477;45.222;5.688;2022-09-13T17:46:24;24.60;99.90
14771;DHT22;7477;45.222;5.688;2022-09-13T17:49:44;24.40;99.90
14771;DHT22;7477;45.222;5.688;2022-09-13T17:53:04;24.40;99.90
14771;DHT22;7477;45.222;5.688;2022-09-13T17:56:29;24.50;99.90
14771;DHT22;7477;45.222;5.688;2022-09-13T17:59:49;24.70;99.90
14771;DHT22;7477;45.222;5.688;2022-09-13T18:03:09;24.70;99.90
14771;DHT22;7477;45.222;5.688;2022-09-13T18:06:29;24.60;99.90
14771;DHT22;7477;45.222;5.688;2022-09-13T18:09:48;24.50;99.90
14771;DHT22;7477;45.222;5.688;2022-09-13T18:13:07;24.30;99.90
14771;DHT22;7477;45.222;5.688;2022-09-13T18:16:27;24.20;99.90
14771;DHT22;7477;45.222;5.688;2022-09-13T18:19:47;24.20;99.90
14771;DHT22;7477;45.222;5.688;2022-09-13T18:23:06;24.10;99.90
14771;DHT22;7477;45.222;5.688;2022-09-13T18:26:27;24.20;99.90
14771;DHT22;7477;45.222;5.688;2022-09-13T18:29:47;24.20;99.90
14771;DHT22;7477;45.222;5.688;2022-09-13T18:33:06;24.30;99.90
14771;DHT22;7477;45.222;5.688;2022-09-13T18:36:27;24.20;99.90
14771;DHT22;7477;45.222;5.688;2022-09-13T18:39:46;24.20;99.90
14771;DHT22;7477;45.222;5.688;2022-09-13T18:43:08;24.20;99.90
14771;DHT22;7477;45.222;5.688;2022-09-13T18:46:29;24.20;99.90
14771;DHT22;7477;45.222;5.688;2022-09-13T18:49:49;24.20;99.90
14771;DHT22;7477;45.222;5.688;2022-09-13T18:53:09;24.10;99.90
14771;DHT22;7477;45.222;5.688;2022-09-13T18:56:28;24.20;99.90
14771;DHT22;7477;45.222;5.688;2022-09-13T18:59:48;24.10;99.90
14771;DHT22;7477;45.222;5.688;2022-09-13T19:03:07;24.00;99.90
14771;DHT22;7477;45.222;5.688;2022-09-13T19:06:46;23.90;99.90
14771;DHT22;7477;45.222;5.688;2022-09-13T19:10:06;23.90;99.90
14771;DHT22;7477;45.222;5.688;2022-09-13T19:13:29;23.80;99.90
14771;DHT22;7477;45.222;5.688;2022-09-13T19:16:50;23.80;99.90
14771;DHT22;7477;45.222;5.688;2022-09-13T19:20:09;23.90;99.90
14771;DHT22;7477;45.222;5.688;2022-09-13T19:23:29;23.90;99.90
14771;DHT22;7477;45.222;5.688;2022-09-13T19:26:50;23.90;99.90
14771;DHT22;7477;45.222;5.688;2022-09-13T19:30:10;24.00;99.90
14771;DHT22;7477;45.222;5.688;2022-09-13T19:33:31;24.00;99.90
14771;DHT22;7477;45.222;5.688;2022-09-13T19:36:52;23.90;99.90
14771;DHT22;7477;45.222;5.688;2022-09-13T19:40:15;23.90;99.90
14771;DHT22;7477;45.222;5.688;2022-09-13T19:43:36;23.80;99.90
14771;DHT22;7477;45.222;5.688;2022-09-13T19:46:55;23.80;99.90
14771;DHT22;7477;45.222;5.688;2022-09-13T19:50:15;23.70;99.90
14771;DHT22;7477;45.222;5.688;2022-09-13T19:53:35;23.70;99.90
14771;DHT22;7477;45.222;5.688;2022-09-13T19:56:55;23.70;99.90
14771;DHT22;7477;45.222;5.688;2022-09-13T20:00:14;23.70;99.90
14771;DHT22;7477;45.222;5.688;2022-09-13T20:03:36;23.70;99.90
14771;DHT22;7477;45.222;5.688;2022-09-13T20:06:55;23.70;99.90
14771;DHT22;7477;45.222;5.688;2022-09-13T20:10:15;23.70;99.90
14771;DHT22;7477;45.222;5.688;2022-09-13T20:13:34;23.70;99.90
14771;DHT22;7477;45.222;5.688;2022-09-13T20:16:54;23.70;99.90
14771;DHT22;7477;45.222;5.688;2022-09-13T20:20:14;23.60;99.90
14771;DHT22;7477;45.222;5.688;2022-09-13T20:23:34;23.60;99.90
14771;DHT22;7477;45.222;5.688;2022-09-13T20:26:54;23.60;99.90
14771;DHT22;7477;45.222;5.688;2022-09-13T20:30:14;23.60;99.90
14771;DHT22;7477;45.222;5.688;2022-09-13T20:33:34;23.60;99.90
14771;DHT22;7477;45.222;5.688;2022-09-13T20:36:54;23.50;99.90
14771;DHT22;7477;45.222;5.688;2022-09-13T20:40:14;23.50;99.90
14771;DHT22;7477;45.222;5.688;2022-09-13T20:43:34;23.60;99.90
14771;DHT22;7477;45.222;5.688;2022-09-13T20:46:55;23.40;99.90
14771;DHT22;7477;45.222;5.688;2022-09-13T20:50:15;23.40;99.90
14771;DHT22;7477;45.222;5.688;2022-09-13T20:53:38;23.40;99.90
14771;DHT22;7477;45.222;5.688;2022-09-13T20:56:57;23.40;99.90
14771;DHT22;7477;45.222;5.688;2022-09-13T21:00:17;23.40;99.90
14771;DHT22;7477;45.222;5.688;2022-09-13T21:03:38;23.40;99.90
14771;DHT22;7477;45.222;5.688;2022-09-13T21:06:57;23.50;99.90
14771;DHT22;7477;45.222;5.688;2022-09-13T21:10:35;23.40;99.90
14771;DHT22;7477;45.222;5.688;2022-09-13T21:14:03;23.50;99.90
14771;DHT22;7477;45.222;5.688;2022-09-13T21:17:23;23.50;99.90
14771;DHT22;7477;45.222;5.688;2022-09-13T21:20:42;23.50;99.90
14771;DHT22;7477;45.222;5.688;2022-09-13T21:24:02;23.50;99.90
14771;DHT22;7477;45.222;5.688;2022-09-13T21:27:22;23.50;99.90
14771;DHT22;7477;45.222;5.688;2022-09-13T21:30:42;23.60;99.90
14771;DHT22;7477;45.222;5.688;2022-09-13T21:34:07;23.60;99.90
14771;DHT22;7477;45.222;5.688;2022-09-13T21:37:26;23.60;99.90
14771;DHT22;7477;45.222;5.688;2022-09-13T21:41:06;23.70;99.90
14771;DHT22;7477;45.222;5.688;2022-09-13T21:44:27;23.60;99.90
14771;DHT22;7477;45.222;5.688;2022-09-13T21:47:47;23.60;99.90
14771;DHT22;7477;45.222;5.688;2022-09-13T21:51:14;23.60;99.90
14771;DHT22;7477;45.222;5.688;2022-09-13T21:54:35;23.60;99.90
14771;DHT22;7477;45.222;5.688;2022-09-13T21:57:54;23.60;99.90
14771;DHT22;7477;45.222;5.688;2022-09-13T22:01:15;23.60;99.90
14771;DHT22;7477;45.222;5.688;2022-09-13T22:04:35;23.70;99.90
14771;DHT22;7477;45.222;5.688;2022-09-13T22:07:54;23.60;99.90
14771;DHT22;7477;45.222;5.688;2022-09-13T22:11:19;23.60;99.90
14771;DHT22;7477;45.222;5.688;2022-09-13T22:14:38;23.60;99.90
14771;DHT22;7477;45.222;5.688;2022-09-13T22:17:57;23.60;99.90
14771;DHT22;7477;45.222;5.688;2022-09-13T22:21:19;23.60;99.90
14771;DHT22;7477;45.222;5.688;2022-09-13T22:24:39;23.70;99.90
14771;DHT22;7477;45.222;5.688;2022-09-13T22:28:01;23.70;99.90
14771;DHT22;7477;45.222;5.688;2022-09-13T22:31:22;23.60;99.90
14771;DHT22;7477;45.222;5.688;2022-09-13T22:34:42;23.60;99.90
14771;DHT22;7477;45.222;5.688;2022-09-13T22:38:01;23.60;99.90
14771;DHT22;7477;45.222;5.688;2022-09-13T22:41:23;23.50;99.90
14771;DHT22;7477;45.222;5.688;2022-09-13T22:44:43;23.50;99.90
14771;DHT22;7477;45.222;5.688;2022-09-13T22:48:03;23.60;99.90
14771;DHT22;7477;45.222;5.688;2022-09-13T22:51:22;23.60;99.90
14771;DHT22;7477;45.222;5.688;2022-09-13T22:54:42;23.60;99.90
14771;DHT22;7477;45.222;5.688;2022-09-13T22:58:02;23.60;99.90
14771;DHT22;7477;45.222;5.688;2022-09-13T23:01:22;23.60;99.90
14771;DHT22;7477;45.222;5.688;2022-09-13T23:04:42;23.60;99.90
14771;DHT22;7477;45.222;5.688;2022-09-13T23:08:01;23.60;99.90
14771;DHT22;7477;45.222;5.688;2022-09-13T23:11:23;23.60;99.90
14771;DHT22;7477;45.222;5.688;2022-09-13T23:14:43;23.50;99.90
14771;DHT22;7477;45.222;5.688;2022-09-13T23:18:02;23.50;99.90
14771;DHT22;7477;45.222;5.688;2022-09-13T23:21:25;23.50;99.90
14771;DHT22;7477;45.222;5.688;2022-09-13T23:24:44;23.40;99.90
14771;DHT22;7477;45.222;5.688;2022-09-13T23:28:03;23.60;99.90
14771;DHT22;7477;45.222;5.688;2022-09-13T23:31:28;23.60;99.90
14771;DHT22;7477;45.222;5.688;2022-09-13T23:34:47;23.60;99.90
14771;DHT22;7477;45.222;5.688;2022-09-13T23:38:07;23.50;99.90
14771;DHT22;7477;45.222;5.688;2022-09-13T23:41:28;23.50;99.90
14771;DHT22;7477;45.222;5.688;2022-09-13T23:44:48;23.40;99.90
14771;DHT22;7477;45.222;5.688;2022-09-13T23:48:07;23.40;99.90
14771;DHT22;7477;45.222;5.688;2022-09-13T23:51:27;23.40;99.90
14771;DHT22;7477;45.222;5.688;2022-09-13T23:54:47;23.40;99.90
14771;DHT22;7477;45.222;5.688;2022-09-13T23:58:06;23.40;99.90
